Time;durP1;ratioP1;P1;durP2;ratioP2;P2;SDS_P1;SDS_P2;PMS_P1;PMS_P2;Temp;Humidity;BMP_temperature;BMP_pressure;BME280_temperature;BME280_humidity;BME280_pressure;Samples;Min_cycle;Max_cycle;Signal;HPM_P1;HPM_P2
2023/04/22 00:00:16;;;;;;;;;;;;;;;19.17;91.69;100662.06;5073098;28;19923;-51
2023/04/22 00:02:42;;;;;;;;;;;;;;;19.30;90.72;100663.53;5073169;28;19980;-49
2023/04/22 00:05:12;;;;;;;;;;;;;;;19.12;91.82;100664.75;5072973;28;19939;-50
2023/04/22 00:07:39;;;;;;;;;;;;;;;18.99;91.81;100665.16;5076713;28;19916;-51
2023/04/22 00:10:05;;;;;;;;;;;;;;;18.99;91.91;100651.59;5076697;28;19917;-51
2023/04/22 00:12:31;;;;;;;;;;;;;;;19.14;91.65;100654.47;5076685;28;19920;-55
2023/04/22 00:14:56;;;;;;;;;;;;;;;19.20;91.64;100653.44;5076611;28;19917;-53
2023/04/22 00:17:21;;;;;;;;;;;;;;;19.04;92.01;100646.25;5076914;28;19976;-55
2023/04/22 00:19:47;;;;;;;;;;;;;;;19.00;92.35;100640.53;5075400;28;19916;-51
2023/04/22 00:22:13;;;;;;;;;;;;;;;18.99;93.19;100643.47;5076119;28;19955;-55
2023/04/22 00:24:38;;;;;;;;;;;;;;;19.04;92.79;100644.34;5076465;28;19924;-53
2023/04/22 00:27:04;;;;;;;;;;;;;;;19.02;92.12;100648.38;5076296;28;19928;-56
2023/04/22 00:29:29;;;;;;;;;;;;;;;19.08;91.94;100651.97;5076942;28;19983;-52
2023/04/22 00:31:55;;;;;;;;;;;;;;;19.08;92.00;100650.09;5076272;28;19917;-52
2023/04/22 00:34:20;;;;;;;;;;;;;;;18.63;93.99;100655.56;5072605;28;19943;-54
2023/04/22 00:36:45;;;;;;;;;;;;;;;18.66;94.39;100651.53;5075953;28;19927;-54
2023/04/22 00:39:11;;;;;;;;;;;;;;;18.61;94.52;100654.19;5076398;28;19917;-55
2023/04/22 00:41:40;;;;;;;;;;;;;;;18.64;94.33;100653.66;5075481;28;19971;-55
2023/04/22 00:44:12;;;;;;;;;;;;;;;18.73;93.79;100652.16;5075560;28;19916;-55
2023/04/22 00:46:38;;;;;;;;;;;;;;;18.74;93.81;100659.22;5073541;28;19956;-50
2023/04/22 00:49:03;;;;;;;;;;;;;;;18.74;93.37;100652.97;5074400;28;19923;-51
2023/04/22 00:51:30;;;;;;;;;;;;;;;19.04;91.99;100647.06;5076068;28;19916;-55
2023/04/22 00:53:56;;;;;;;;;;;;;;;19.23;90.00;100652.09;5075684;28;19920;-54
2023/04/22 00:56:24;;;;;;;;;;;;;;;18.86;91.77;100656.34;5074564;28;19924;-53
2023/04/22 00:58:49;;;;;;;;;;;;;;;18.51;93.39;100651.38;5070043;28;19916;-53
2023/04/22 01:01:15;;;;;;;;;;;;;;;18.61;92.76;100656.88;5075992;28;19917;-52
2023/04/22 01:03:41;;;;;;;;;;;;;;;18.45;94.57;100654.03;5075728;28;19940;-55
2023/04/22 01:06:07;;;;;;;;;;;;;;;18.50;94.61;100653.25;5075539;28;19917;-52
2023/04/22 01:08:33;;;;;;;;;;;;;;;18.52;93.93;100650.28;5075332;28;20012;-52
2023/04/22 01:10:59;;;;;;;;;;;;;;;18.50;93.63;100655.94;5075641;28;19947;-54
2023/04/22 01:13:24;;;;;;;;;;;;;;;18.60;93.31;100647.97;5075901;28;19947;-52
2023/04/22 01:15:51;;;;;;;;;;;;;;;18.46;93.88;100652.94;5075163;28;19972;-52
2023/04/22 01:18:17;;;;;;;;;;;;;;;18.41;93.75;100643.94;5074246;28;19928;-54
2023/04/22 01:20:44;;;;;;;;;;;;;;;18.37;93.99;100638.22;5075480;28;19917;-54
2023/04/22 01:23:19;;;;;;;;;;;;;;;18.45;93.82;100653.19;5074116;28;19978;-54
2023/04/22 01:25:45;;;;;;;;;;;;;;;17.92;97.33;100656.28;5090704;28;19924;-55
2023/04/22 01:28:11;;;;;;;;;;;;;;;18.29;96.63;100647.59;5075232;28;19923;-55
2023/04/22 01:30:37;;;;;;;;;;;;;;;18.42;95.46;100640.97;5087948;28;19921;-49
2023/04/22 01:33:04;;;;;;;;;;;;;;;18.28;96.09;100640.53;5083166;28;20020;-49
2023/04/22 01:35:35;;;;;;;;;;;;;;;18.56;94.73;100640.59;5070908;28;19925;-55
2023/04/22 01:38:05;;;;;;;;;;;;;;;18.33;95.72;100640.59;5075590;28;19988;-50
2023/04/22 01:40:31;;;;;;;;;;;;;;;18.57;94.29;100637.63;5075019;28;19938;-52
2023/04/22 01:43:00;;;;;;;;;;;;;;;18.46;94.60;100633.16;5075017;28;19948;-55
2023/04/22 01:45:25;;;;;;;;;;;;;;;18.78;93.33;100630.53;5072282;28;19976;-55
2023/04/22 01:47:51;;;;;;;;;;;;;;;18.63;94.13;100633.06;5075068;28;19927;-55
2023/04/22 01:50:16;;;;;;;;;;;;;;;18.51;94.58;100633.22;5075338;28;19926;-55
2023/04/22 01:52:44;;;;;;;;;;;;;;;18.54;94.79;100631.91;5074082;28;19921;-51
2023/04/22 01:55:09;;;;;;;;;;;;;;;18.54;94.55;100640.03;5073910;28;19928;-54
2023/04/22 01:57:34;;;;;;;;;;;;;;;18.85;93.27;100638.47;5073872;28;19928;-54
2023/04/22 02:00:00;;;;;;;;;;;;;;;18.61;94.62;100640.63;5072078;28;19921;-52
2023/04/22 02:02:25;;;;;;;;;;;;;;;18.61;95.11;100648.75;5072998;28;19980;-52
2023/04/22 02:04:51;;;;;;;;;;;;;;;18.72;94.99;100636.97;5071663;28;20310;-53
2023/04/22 02:07:16;;;;;;;;;;;;;;;18.85;94.36;100640.34;5072863;28;19917;-51
2023/04/22 02:09:42;;;;;;;;;;;;;;;18.80;94.69;100641.13;5073565;28;19917;-55
2023/04/22 02:12:07;;;;;;;;;;;;;;;18.71;95.19;100638.06;5070406;28;19917;-53
2023/04/22 02:14:33;;;;;;;;;;;;;;;18.76;95.25;100638.09;5071503;28;19916;-54
2023/04/22 02:17:02;;;;;;;;;;;;;;;18.98;94.29;100634.53;5072578;28;19921;-53
2023/04/22 02:19:27;;;;;;;;;;;;;;;18.86;93.93;100636.56;5072869;28;19923;-53
2023/04/22 02:21:53;;;;;;;;;;;;;;;18.45;96.20;100635.06;5073888;28;19916;-52
2023/04/22 02:24:19;;;;;;;;;;;;;;;18.60;95.78;100630.88;5073054;28;19917;-55
2023/04/22 02:26:46;;;;;;;;;;;;;;;18.39;97.07;100636.06;5073251;28;19913;-50
2023/04/22 02:29:11;;;;;;;;;;;;;;;18.40;97.84;100635.00;5071470;28;19917;-52
2023/04/22 02:31:37;;;;;;;;;;;;;;;18.49;97.00;100638.91;5073590;28;19927;-51
2023/04/22 02:34:03;;;;;;;;;;;;;;;18.49;97.25;100630.78;5070250;28;19916;-49
2023/04/22 02:36:28;;;;;;;;;;;;;;;18.60;96.46;100636.28;5070893;28;19920;-50
2023/04/22 02:38:54;;;;;;;;;;;;;;;18.34;97.84;100622.47;5073051;28;19925;-52
2023/04/22 02:41:19;;;;;;;;;;;;;;;18.40;97.90;100631.47;5073147;28;19916;-50
2023/04/22 02:43:45;;;;;;;;;;;;;;;18.44;97.76;100624.47;5072071;28;19924;-52
2023/04/22 02:46:12;;;;;;;;;;;;;;;18.49;97.60;100630.78;5071579;28;19984;-51
2023/04/22 02:48:39;;;;;;;;;;;;;;;18.62;96.03;100617.91;5072337;28;19916;-50
2023/04/22 02:51:05;;;;;;;;;;;;;;;18.52;96.98;100610.47;5072661;28;19927;-49
2023/04/22 02:53:31;;;;;;;;;;;;;;;18.45;97.63;100604.47;5008399;28;1710856;-51
2023/04/22 02:55:57;;;;;;;;;;;;;;;18.89;94.73;100609.78;5072411;28;19917;-52
2023/04/22 02:58:23;;;;;;;;;;;;;;;18.91;94.27;100615.75;5073674;28;19931;-51
2023/04/22 03:00:48;;;;;;;;;;;;;;;19.13;93.08;100619.47;5073546;28;19917;-52
2023/04/22 03:03:14;;;;;;;;;;;;;;;18.92;94.45;100614.69;5073965;28;19928;-51
2023/04/22 03:05:39;;;;;;;;;;;;;;;18.99;93.79;100617.22;5067334;28;19992;-54
2023/04/22 03:08:05;;;;;;;;;;;;;;;19.12;93.24;100615.97;5073827;28;19948;-51
2023/04/22 03:10:31;;;;;;;;;;;;;;;19.27;93.01;100612.56;5070642;28;19917;-51
2023/04/22 03:12:57;;;;;;;;;;;;;;;19.08;92.34;100605.88;5074064;28;19944;-49
2023/04/22 03:15:23;;;;;;;;;;;;;;;19.15;93.24;100611.94;5072645;28;19928;-54
2023/04/22 03:17:48;;;;;;;;;;;;;;;19.03;93.44;100607.50;5072766;28;19944;-53
2023/04/22 03:20:15;;;;;;;;;;;;;;;18.97;94.01;100600.38;5070347;28;19920;-54
2023/04/22 03:22:40;;;;;;;;;;;;;;;18.75;94.90;100606.66;5072004;28;19921;-51
2023/04/22 03:25:09;;;;;;;;;;;;;;;18.59;97.56;100596.75;5072368;28;19917;-51
2023/04/22 03:27:35;;;;;;;;;;;;;;;18.67;97.02;100593.56;5072664;28;19917;-49
2023/04/22 03:30:00;;;;;;;;;;;;;;;18.60;97.84;100592.97;5072671;28;19916;-51
2023/04/22 03:32:25;;;;;;;;;;;;;;;18.98;94.91;100595.75;5073679;28;20008;-51
2023/04/22 03:35:04;;;;;;;;;;;;;;;18.72;96.66;100596.34;5072184;28;19916;-49
2023/04/22 03:37:30;;;;;;;;;;;;;;;18.79;96.21;100585.28;5072570;28;19921;-51
2023/04/22 03:39:56;;;;;;;;;;;;;;;18.73;96.71;100587.16;5070528;28;19996;-50
2023/04/22 03:42:22;;;;;;;;;;;;;;;18.72;96.68;100587.41;5079069;28;19988;-49
2023/04/22 03:44:47;;;;;;;;;;;;;;;18.57;96.37;100580.78;5073081;28;19947;-50
2023/04/22 03:47:16;;;;;;;;;;;;;;;18.28;98.73;100583.69;5072136;28;19979;-54
2023/04/22 03:49:48;;;;;;;;;;;;;;;18.29;98.55;100573.69;5072237;28;19917;-48
2023/04/22 03:52:13;;;;;;;;;;;;;;;18.01;100.00;100572.81;5069869;28;19931;-49
2023/04/22 03:54:45;;;;;;;;;;;;;;;18.31;99.05;100576.97;5078079;28;19924;-55
2023/04/22 03:57:11;;;;;;;;;;;;;;;18.45;97.96;100578.22;5055950;28;19921;-53
2023/04/22 03:59:37;;;;;;;;;;;;;;;18.45;98.51;100570.09;5072170;28;19921;-51
2023/04/22 04:02:03;;;;;;;;;;;;;;;18.46;98.49;100576.31;5072050;28;19944;-48
2023/04/22 04:04:28;;;;;;;;;;;;;;;18.65;97.59;100570.53;5073166;28;19917;-51
2023/04/22 04:06:57;;;;;;;;;;;;;;;18.54;98.46;100573.13;5072318;28;19943;-50
2023/04/22 04:09:25;;;;;;;;;;;;;;;18.60;97.93;100563.19;5072428;28;19995;-51
2023/04/22 04:11:50;;;;;;;;;;;;;;;18.48;98.01;100560.63;5072190;28;19977;-54
2023/04/22 04:14:16;;;;;;;;;;;;;;;18.41;99.66;100558.13;5073036;28;19917;-50
2023/04/22 04:16:46;;;;;;;;;;;;;;;18.85;96.81;100550.94;5069931;28;19946;-52
2023/04/22 04:19:19;;;;;;;;;;;;;;;18.85;95.97;100559.06;5088374;28;19988;-53
2023/04/22 04:21:45;;;;;;;;;;;;;;;19.03;95.40;100561.41;5072166;28;19923;-51
2023/04/22 04:24:10;;;;;;;;;;;;;;;18.65;97.49;100546.97;5071982;28;20000;-52
2023/04/22 04:26:42;;;;;;;;;;;;;;;18.37;98.70;100546.16;5082986;28;19966;-50
2023/04/22 04:29:12;;;;;;;;;;;;;;;18.22;100.00;100544.13;5085614;28;19916;-50
2023/04/22 04:31:41;;;;;;;;;;;;;;;18.72;98.43;100549.47;5068261;28;19924;-48
2023/04/22 04:34:07;;;;;;;;;;;;;;;19.30;94.82;100546.97;5072929;28;19912;-51
2023/04/22 04:36:34;;;;;;;;;;;;;;;19.41;93.35;100555.19;5072778;28;19927;-53
2023/04/22 04:39:11;;;;;;;;;;;;;;;19.55;91.99;100552.81;5071845;28;19920;-53
2023/04/22 04:41:37;;;;;;;;;;;;;;;19.28;93.09;100542.91;5085382;28;19992;-48
2023/04/22 04:44:05;;;;;;;;;;;;;;;19.43;92.31;100534.03;5068169;28;19917;-57
2023/04/22 04:46:36;;;;;;;;;;;;;;;19.60;91.93;100534.66;5070489;28;19988;-50
2023/04/22 04:49:03;;;;;;;;;;;;;;;18.89;95.57;100538.50;5071871;28;19920;-53
2023/04/22 04:51:31;;;;;;;;;;;;;;;18.76;96.97;100532.47;5072231;28;19920;-50
2023/04/22 04:53:58;;;;;;;;;;;;;;;18.86;96.45;100528.19;5074750;28;19924;-54
2023/04/22 04:56:27;;;;;;;;;;;;;;;19.14;94.85;100524.38;5073788;28;19955;-50
2023/04/22 04:58:53;;;;;;;;;;;;;;;19.17;94.68;100528.47;5074648;28;19939;-51
2023/04/22 05:01:23;;;;;;;;;;;;;;;19.14;94.93;100531.66;5070029;28;19924;-49
2023/04/22 05:03:49;;;;;;;;;;;;;;;19.00;96.11;100534.84;5073402;28;19917;-52
2023/04/22 05:06:16;;;;;;;;;;;;;;;19.25;95.37;100530.69;5071085;28;19924;-52
2023/04/22 05:08:46;;;;;;;;;;;;;;;19.15;95.63;100539.56;5056221;28;19939;-49
2023/04/22 05:11:11;;;;;;;;;;;;;;;19.18;95.91;100543.66;5075978;28;19948;-53
2023/04/22 05:13:37;;;;;;;;;;;;;;;19.24;96.26;100541.75;5073163;28;20076;-52
2023/04/22 05:16:05;;;;;;;;;;;;;;;19.54;94.86;100560.13;5074901;28;19927;-56
2023/04/22 05:18:30;;;;;;;;;;;;;;;18.99;95.77;100554.88;5075019;28;19959;-51
2023/04/22 05:20:58;;;;;;;;;;;;;;;18.86;97.20;100552.56;5074799;28;19921;-52
2023/04/22 05:23:23;;;;;;;;;;;;;;;18.64;99.52;100556.16;5075146;28;19956;-54
2023/04/22 05:25:52;;;;;;;;;;;;;;;18.62;99.91;100551.03;5073768;28;19916;-55
2023/04/22 05:28:17;;;;;;;;;;;;;;;18.39;100.00;100554.03;5075571;28;19917;-51
2023/04/22 05:30:48;;;;;;;;;;;;;;;18.41;100.00;100551.91;5074691;28;19917;-53
2023/04/22 05:33:14;;;;;;;;;;;;;;;18.11;100.00;100550.50;5073896;28;19988;-49
2023/04/22 05:35:39;;;;;;;;;;;;;;;18.45;100.00;100544.91;5073621;28;19929;-54
2023/04/22 05:38:06;;;;;;;;;;;;;;;18.47;100.00;100537.34;5072564;28;19916;-52
2023/04/22 05:40:32;;;;;;;;;;;;;;;18.58;100.00;100540.97;5074338;28;19996;-51
2023/04/22 05:42:59;;;;;;;;;;;;;;;18.77;99.92;100539.50;5074651;28;19916;-49
2023/04/22 05:45:25;;;;;;;;;;;;;;;18.96;99.84;100539.13;5070448;28;19925;-53
2023/04/22 05:47:50;;;;;;;;;;;;;;;19.03;98.46;100542.44;5072452;28;20005;-53
2023/04/22 05:50:16;;;;;;;;;;;;;;;19.13;98.47;100546.31;5070122;28;19984;-51
2023/04/22 05:52:49;;;;;;;;;;;;;;;19.24;96.85;100541.75;5086631;28;19935;-48
2023/04/22 05:55:16;;;;;;;;;;;;;;;19.00;97.54;100552.97;5072242;28;19917;-54
2023/04/22 05:57:42;;;;;;;;;;;;;;;18.88;98.50;100551.25;5072812;28;19924;-52
2023/04/22 06:00:21;;;;;;;;;;;;;;;19.31;96.35;100536.97;5072384;28;20733;-53
2023/04/22 06:02:59;;;;;;;;;;;;;;;19.77;94.33;100548.06;5072355;28;19924;-49
2023/04/22 06:05:25;;;;;;;;;;;;;;;19.61;94.40;100546.34;5073280;28;20355;-50
2023/04/22 06:07:51;;;;;;;;;;;;;;;19.90;92.36;100552.16;5082124;28;19925;-52
2023/04/22 06:10:16;;;;;;;;;;;;;;;19.69;92.90;100550.44;5073847;28;19962;-51
2023/04/22 06:12:41;;;;;;;;;;;;;;;19.95;91.96;100543.25;5074459;28;19916;-51
2023/04/22 06:15:07;;;;;;;;;;;;;;;19.67;92.66;100544.47;5073896;28;19931;-51
2023/04/22 06:17:34;;;;;;;;;;;;;;;20.15;91.66;100539.81;5071825;28;19920;-49
2023/04/22 06:19:59;;;;;;;;;;;;;;;20.22;90.93;100527.88;5073677;28;19942;-49
2023/04/22 06:22:24;;;;;;;;;;;;;;;20.54;90.21;100522.22;5074429;28;19936;-52
2023/04/22 06:24:50;;;;;;;;;;;;;;;20.64;89.42;100521.41;5071124;28;19944;-53
2023/04/22 06:27:15;;;;;;;;;;;;;;;20.57;90.18;100516.25;5074370;28;19952;-49
2023/04/22 06:29:41;;;;;;;;;;;;;;;20.61;90.52;100517.31;5071734;28;19917;-51
2023/04/22 06:32:06;;;;;;;;;;;;;;;20.55;90.48;100517.63;5071429;28;19916;-53
2023/04/22 06:34:32;;;;;;;;;;;;;;;20.71;90.02;100519.22;5087673;28;19920;-49
2023/04/22 06:36:57;;;;;;;;;;;;;;;20.87;90.11;100517.34;5069763;28;19921;-53
2023/04/22 06:39:23;;;;;;;;;;;;;;;20.84;90.16;100514.38;5069952;28;19916;-55
2023/04/22 06:42:24;;;;;;;;;;;;;;;21.57;86.85;100517.78;5073863;28;19924;-54
2023/04/22 06:45:11;;;;;;;;;;;;;;;21.94;85.04;100521.19;5074158;28;20826;-54
2023/04/22 06:47:48;;;;;;;;;;;;;;;22.09;83.88;100518.38;5082276;28;19985;-51
2023/04/22 06:50:19;;;;;;;;;;;;;;;21.96;84.30;100524.44;5073448;28;19916;-53
2023/04/22 06:52:53;;;;;;;;;;;;;;;21.31;86.06;100517.84;5070992;28;19960;-55
2023/04/22 06:55:18;;;;;;;;;;;;;;;21.34;85.77;100518.09;5071762;28;19917;-54
2023/04/22 06:57:44;;;;;;;;;;;;;;;21.54;85.15;100518.31;5073857;28;19917;-54
2023/04/22 07:00:09;;;;;;;;;;;;;;;21.75;86.50;100521.81;5073081;28;19920;-54
2023/04/22 07:02:37;;;;;;;;;;;;;;;21.99;85.14;100513.78;5069002;28;19923;-50
2023/04/22 07:05:03;;;;;;;;;;;;;;;22.08;84.48;100516.75;5070932;28;19944;-50
2023/04/22 07:07:29;;;;;;;;;;;;;;;22.25;84.97;100510.91;5072908;28;20122;-53
2023/04/22 07:09:55;;;;;;;;;;;;;;;22.10;85.12;100514.56;5054599;28;19917;-53
2023/04/22 07:12:25;;;;;;;;;;;;;;;22.19;84.71;100512.88;5072580;28;19917;-51
2023/04/22 07:14:50;;;;;;;;;;;;;;;21.82;85.59;100511.44;5073501;28;19974;-50
2023/04/22 07:17:18;;;;;;;;;;;;;;;21.82;85.52;100513.34;5073987;28;20047;-50
2023/04/22 07:19:43;;;;;;;;;;;;;;;21.51;86.10;100500.66;5070898;28;19920;-51
2023/04/22 07:22:08;;;;;;;;;;;;;;;22.05;85.15;100506.41;5073591;28;19929;-53
2023/04/22 07:24:34;;;;;;;;;;;;;;;22.17;84.85;100506.06;5073347;28;19917;-54
2023/04/22 07:27:01;;;;;;;;;;;;;;;22.26;85.05;100506.28;5073441;28;19917;-56
2023/04/22 07:29:26;;;;;;;;;;;;;;;22.36;83.37;100508.94;5073339;28;19955;-53
2023/04/22 07:31:52;;;;;;;;;;;;;;;21.49;87.72;100509.09;5073169;28;19932;-51
2023/04/22 07:34:18;;;;;;;;;;;;;;;21.63;88.16;100506.56;5071311;28;19923;-55
2023/04/22 07:36:43;;;;;;;;;;;;;;;21.35;88.46;100511.56;5073142;28;19921;-52
2023/04/22 07:39:08;;;;;;;;;;;;;;;20.94;91.55;100514.34;5073166;28;19920;-53
2023/04/22 07:41:34;;;;;;;;;;;;;;;21.00;90.87;100507.84;5072938;28;19956;-53
2023/04/22 07:44:01;;;;;;;;;;;;;;;21.18;90.45;100505.63;5072792;28;19921;-54
2023/04/22 07:46:27;;;;;;;;;;;;;;;21.02;92.01;100513.00;5073054;28;19925;-50
2023/04/22 07:48:53;;;;;;;;;;;;;;;21.93;88.51;100506.75;5073115;28;19912;-54
2023/04/22 07:51:18;;;;;;;;;;;;;;;22.09;87.59;100514.84;5072950;28;19988;-53
2023/04/22 07:53:44;;;;;;;;;;;;;;;22.15;87.43;100519.16;5058018;28;19927;-50
2023/04/22 07:56:09;;;;;;;;;;;;;;;21.86;89.25;100515.22;5052012;28;19929;-50
2023/04/22 07:58:34;;;;;;;;;;;;;;;22.25;87.28;100519.09;5035633;28;19921;-52
2023/04/22 08:01:00;;;;;;;;;;;;;;;21.81;88.97;100514.44;5053023;28;19936;-53
2023/04/22 08:03:25;;;;;;;;;;;;;;;21.85;90.60;100510.06;5053242;28;19917;-51
2023/04/22 08:05:51;;;;;;;;;;;;;;;21.94;90.46;100510.31;5052081;28;19917;-55
2023/04/22 08:08:17;;;;;;;;;;;;;;;22.28;89.63;100509.56;5053088;28;19971;-53
2023/04/22 08:10:42;;;;;;;;;;;;;;;22.88;86.82;100501.19;5052720;28;19925;-54
2023/04/22 08:13:08;;;;;;;;;;;;;;;22.54;86.99;100490.31;5052865;28;19917;-55
2023/04/22 08:15:33;;;;;;;;;;;;;;;22.56;87.26;100478.06;5051541;28;19921;-55
2023/04/22 08:17:58;;;;;;;;;;;;;;;23.34;84.88;100469.13;5053050;28;19917;-55
2023/04/22 08:20:24;;;;;;;;;;;;;;;23.79;83.48;100468.84;5051167;28;19924;-53
2023/04/22 08:22:50;;;;;;;;;;;;;;;23.97;82.32;100469.13;5052793;28;19944;-54
2023/04/22 08:25:16;;;;;;;;;;;;;;;24.03;81.64;100465.28;5052352;28;19932;-51
2023/04/22 08:27:41;;;;;;;;;;;;;;;23.84;82.03;100463.31;5055666;28;19917;-54
2023/04/22 08:30:07;;;;;;;;;;;;;;;23.63;83.56;100477.22;5056051;28;19914;-55
2023/04/22 08:32:33;;;;;;;;;;;;;;;24.41;80.88;100475.34;5056659;28;19928;-54
2023/04/22 08:34:58;;;;;;;;;;;;;;;24.61;79.08;100476.91;5056235;28;19917;-56
2023/04/22 08:37:24;;;;;;;;;;;;;;;25.10;77.87;100490.31;5055901;28;19921;-49
2023/04/22 08:39:50;;;;;;;;;;;;;;;25.14;77.30;100486.69;5056352;28;19928;-54
2023/04/22 08:42:18;;;;;;;;;;;;;;;24.87;77.39;100484.69;5056300;28;19917;-55
2023/04/22 08:44:43;;;;;;;;;;;;;;;24.82;77.29;100482.06;5056170;28;19928;-53
2023/04/22 08:47:10;;;;;;;;;;;;;;;24.79;77.40;100482.66;5055737;28;19921;-52
2023/04/22 08:49:36;;;;;;;;;;;;;;;25.28;75.72;100478.47;5053706;28;19917;-56
2023/04/22 08:52:01;;;;;;;;;;;;;;;25.18;76.11;100470.47;5056354;28;19948;-52
2023/04/22 08:54:27;;;;;;;;;;;;;;;25.77;74.20;100461.63;5076285;28;19921;-56
2023/04/22 08:56:54;;;;;;;;;;;;;;;26.22;72.74;100463.66;5075615;28;19932;-51
2023/04/22 08:59:21;;;;;;;;;;;;;;;26.15;72.84;100461.31;5075968;28;19980;-52
2023/04/22 09:01:50;;;;;;;;;;;;;;;26.16;72.11;100449.25;5076248;28;19923;-52
2023/04/22 09:04:17;;;;;;;;;;;;;;;25.83;71.54;100451.34;5070314;28;20003;-53
2023/04/22 09:06:43;;;;;;;;;;;;;;;26.33;70.20;100439.53;5075826;28;19980;-53
2023/04/22 09:09:09;;;;;;;;;;;;;;;26.76;69.51;100440.91;5075809;28;19939;-52
2023/04/22 09:11:36;;;;;;;;;;;;;;;27.07;67.92;100444.78;5075849;28;19920;-52
2023/04/22 09:14:05;;;;;;;;;;;;;;;26.09;69.38;100437.91;5075132;28;19924;-50
2023/04/22 09:16:31;;;;;;;;;;;;;;;27.26;67.78;100436.28;5074979;28;19932;-55
2023/04/22 09:18:57;;;;;;;;;;;;;;;27.53;67.06;100435.25;5075529;28;19983;-53
2023/04/22 09:21:26;;;;;;;;;;;;;;;27.54;66.57;100423.13;5074699;28;19931;-55
2023/04/22 09:23:53;;;;;;;;;;;;;;;28.38;65.14;100424.09;5075527;28;20027;-57
2023/04/22 09:26:19;;;;;;;;;;;;;;;28.94;62.00;100424.09;5074881;28;19944;-57
2023/04/22 09:28:49;;;;;;;;;;;;;;;29.88;57.78;100426.94;5075403;28;19917;-56
2023/04/22 09:31:15;;;;;;;;;;;;;;;30.56;55.75;100427.75;5072968;28;19957;-54
2023/04/22 09:33:40;;;;;;;;;;;;;;;30.66;54.81;100421.00;5074769;28;19924;-57
2023/04/22 09:36:09;;;;;;;;;;;;;;;31.07;53.02;100427.47;5074779;28;19921;-54
2023/04/22 09:38:34;;;;;;;;;;;;;;;31.50;53.06;100430.78;5075218;28;19916;-53
2023/04/22 09:41:00;;;;;;;;;;;;;;;31.74;51.36;100434.63;5074633;28;19927;-53
2023/04/22 09:43:25;;;;;;;;;;;;;;;31.66;50.66;100430.84;5070742;28;19940;-55
2023/04/22 09:45:51;;;;;;;;;;;;;;;31.82;51.50;100427.38;5074359;28;19934;-58
2023/04/22 09:48:17;;;;;;;;;;;;;;;31.77;49.58;100435.94;5074012;28;19959;-57
2023/04/22 09:50:44;;;;;;;;;;;;;;;32.16;49.41;100417.69;5074742;28;19925;-54
2023/04/22 09:53:11;;;;;;;;;;;;;;;32.50;48.93;100416.56;5072982;28;19932;-55
2023/04/22 09:55:38;;;;;;;;;;;;;;;33.17;46.81;100424.16;5074546;28;19920;-57
2023/04/22 09:58:06;;;;;;;;;;;;;;;33.45;45.25;100428.78;5074765;28;19938;-52
2023/04/22 10:00:32;;;;;;;;;;;;;;;33.50;44.84;100422.94;5074369;28;19923;-55
2023/04/22 10:02:57;;;;;;;;;;;;;;;34.83;43.08;100425.81;5074794;28;19948;-56
2023/04/22 10:05:25;;;;;;;;;;;;;;;34.03;41.99;100429.97;5074240;28;19916;-52
2023/04/22 10:07:51;;;;;;;;;;;;;;;34.47;41.07;100424.03;5073235;28;19925;-54
2023/04/22 10:10:17;;;;;;;;;;;;;;;33.72;41.50;100426.19;5074146;28;19952;-55
2023/04/22 10:12:43;;;;;;;;;;;;;;;31.92;43.17;100413.06;5073557;28;19929;-56
2023/04/22 10:15:09;;;;;;;;;;;;;;;29.65;45.87;100415.44;5072503;28;19936;-51
2023/04/22 10:17:36;;;;;;;;;;;;;;;29.66;46.66;100420.63;5073981;28;19929;-51
2023/04/22 10:20:03;;;;;;;;;;;;;;;29.04;47.70;100425.66;5073952;28;19920;-55
2023/04/22 10:22:30;;;;;;;;;;;;;;;28.83;49.14;100423.66;5074063;28;19919;-54
2023/04/22 10:24:57;;;;;;;;;;;;;;;28.17;50.21;100416.53;5074067;28;19928;-54
2023/04/22 10:27:22;;;;;;;;;;;;;;;27.89;51.87;100414.09;5073824;28;19917;-55
2023/04/22 10:29:47;;;;;;;;;;;;;;;28.18;51.90;100427.22;5073708;28;19948;-53
2023/04/22 10:32:16;;;;;;;;;;;;;;;27.87;52.72;100438.34;5071491;28;19917;-55
2023/04/22 10:34:41;;;;;;;;;;;;;;;28.20;51.71;100437.88;5073584;28;19917;-54
2023/04/22 10:37:08;;;;;;;;;;;;;;;28.43;51.49;100434.91;5074072;28;20030;-54
2023/04/22 10:39:33;;;;;;;;;;;;;;;29.23;49.78;100430.75;5074301;28;19951;-56
2023/04/22 10:42:02;;;;;;;;;;;;;;;30.36;47.83;100424.72;5073345;28;19917;-56
2023/04/22 10:44:31;;;;;;;;;;;;;;;31.44;45.91;100443.22;5073281;28;19916;-57
2023/04/22 10:46:58;;;;;;;;;;;;;;;30.66;47.04;100437.56;5073544;28;19913;-54
2023/04/22 10:49:25;;;;;;;;;;;;;;;30.35;47.90;100438.84;5073090;28;19916;-56
2023/04/22 10:51:57;;;;;;;;;;;;;;;29.42;49.97;100438.63;5073874;28;19932;-53
2023/04/22 10:54:35;;;;;;;;;;;;;;;28.43;51.49;100446.72;5054173;28;19921;-53
2023/04/22 10:57:08;;;;;;;;;;;;;;;28.29;51.80;100454.34;5053910;28;19925;-57
2023/04/22 10:59:40;;;;;;;;;;;;;;;28.33;52.70;100436.06;5051696;28;19924;-53
2023/04/22 11:02:06;;;;;;;;;;;;;;;28.34;52.20;100429.44;5053941;28;19924;-53
2023/04/22 11:04:32;;;;;;;;;;;;;;;28.22;52.36;100426.56;5052606;28;19924;-48
2023/04/22 11:07:16;;;;;;;;;;;;;;;28.07;53.30;100420.38;5052504;28;19917;-54
2023/04/22 11:09:42;;;;;;;;;;;;;;;27.80;54.26;100424.28;5053045;28;19921;-53
2023/04/22 11:12:26;;;;;;;;;;;;;;;28.04;54.11;100423.78;5051757;28;19924;-56
2023/04/22 11:14:52;;;;;;;;;;;;;;;27.14;56.26;100434.16;5052956;28;20000;-53
2023/04/22 11:17:18;;;;;;;;;;;;;;;27.37;55.71;100429.38;5052176;28;19921;-51
2023/04/22 11:19:43;;;;;;;;;;;;;;;27.08;56.14;100424.44;5052926;28;20426;-54
2023/04/22 11:22:09;;;;;;;;;;;;;;;27.53;54.92;100416.03;5052723;28;19917;-53
2023/04/22 11:24:35;;;;;;;;;;;;;;;27.28;55.42;100410.13;5051794;28;19918;-54
2023/04/22 11:27:01;;;;;;;;;;;;;;;26.58;56.89;100415.34;5051392;28;19955;-54
2023/04/22 11:29:26;;;;;;;;;;;;;;;26.19;58.80;100423.97;5052693;28;19943;-53
2023/04/22 11:31:52;;;;;;;;;;;;;;;26.22;58.94;100429.94;5051852;28;19917;-52
2023/04/22 11:34:17;;;;;;;;;;;;;;;25.70;62.46;100425.63;5052520;28;19917;-55
2023/04/22 11:36:46;;;;;;;;;;;;;;;25.84;65.60;100420.94;5052093;28;19935;-53
2023/04/22 11:39:13;;;;;;;;;;;;;;;26.54;67.77;100415.16;5051484;28;19928;-54
2023/04/22 11:41:39;;;;;;;;;;;;;;;26.40;71.72;100423.44;5052777;28;19917;-53
2023/04/22 11:44:05;;;;;;;;;;;;;;;25.39;79.11;100423.53;5052388;28;19917;-52
2023/04/22 11:46:37;;;;;;;;;;;;;;;25.47;82.04;100425.56;5052412;28;19956;-56
2023/04/22 11:49:12;;;;;;;;;;;;;;;25.45;83.31;100425.84;5052506;28;19924;-55
2023/04/22 11:51:50;;;;;;;;;;;;;;;25.19;82.03;100426.38;5052397;28;19996;-54
2023/04/22 11:54:16;;;;;;;;;;;;;;;25.02;82.50;100427.00;5071564;28;19921;-51
2023/04/22 11:56:41;;;;;;;;;;;;;;;25.14;84.03;100412.81;5072526;28;19928;-54
2023/04/22 11:59:08;;;;;;;;;;;;;;;25.05;83.44;100425.59;5072240;28;19924;-50
2023/04/22 12:01:34;;;;;;;;;;;;;;;25.26;84.73;100425.16;5073660;28;19917;-54
2023/04/22 12:04:00;;;;;;;;;;;;;;;25.18;86.60;100418.50;5076221;28;19943;-53
2023/04/22 12:06:28;;;;;;;;;;;;;;;25.66;88.86;100422.69;5076677;28;19920;-52
2023/04/22 12:08:54;;;;;;;;;;;;;;;25.77;93.09;100423.28;5076080;28;19932;-54
2023/04/22 12:11:20;;;;;;;;;;;;;;;25.64;92.73;100433.16;5076564;28;19924;-53
2023/04/22 12:13:45;;;;;;;;;;;;;;;24.80;95.07;100429.59;5076565;28;19917;-56
2023/04/22 12:16:13;;;;;;;;;;;;;;;24.89;97.79;100434.06;5076104;28;19924;-57
2023/04/22 12:18:41;;;;;;;;;;;;;;;24.13;100.00;100434.25;5076259;28;20003;-55
2023/04/22 12:21:06;;;;;;;;;;;;;;;24.47;100.00;100433.16;5076360;28;19917;-57
2023/04/22 12:23:41;;;;;;;;;;;;;;;24.82;100.00;100430.13;5076255;28;19923;-56
2023/04/22 12:26:06;;;;;;;;;;;;;;;24.65;100.00;100434.19;5076174;28;19921;-55
2023/04/22 12:28:32;;;;;;;;;;;;;;;25.19;100.00;100431.84;5074858;28;19939;-55
2023/04/22 12:30:57;;;;;;;;;;;;;;;24.96;100.00;100432.84;5076342;28;19956;-54
2023/04/22 12:33:22;;;;;;;;;;;;;;;24.46;100.00;100435.09;5076175;28;19917;-57